Terminal Aerodrome Forecast
Issued by NWS Jackson, KY

Home | Current Version | Previous Version | Graphics & Text | Print | Product List | Glossary On
Versions: 1 2 3 4 5 6 7 8 9 10 11 12 13
000
FTUS43 KJKL 312300
TAFLOZ
TAF
KLOZ 312332Z 0100/0124 VRB04KT P6SM FEW050 BKN250
     FM010900 00000KT 5SM BR BKN090
     FM011400 06005KT P6SM VCTS SCT025CB BKN040=

USA.gov is the U.S. government's official web portal to all federal, state and local government web resources and services.